sensor_id;sensor_type;location;lat;lon;timestamp;temperature;humidity
8261;DHT22;64115;50.170;8.242;2023-03-16T00:01:07;0.30;99.90
8261;DHT22;64115;50.170;8.242;2023-03-16T00:03:34;0.30;99.90
8261;DHT22;64115;50.170;8.242;2023-03-16T00:06:02;0.30;99.90
8261;DHT22;64115;50.170;8.242;2023-03-16T00:08:29;0.30;99.90
8261;DHT22;64115;50.170;8.242;2023-03-16T00:10:56;0.30;99.90
8261;DHT22;64115;50.170;8.242;2023-03-16T00:13:23;0.30;99.90
8261;DHT22;64115;50.170;8.242;2023-03-16T00:15:51;0.20;99.90
8261;DHT22;64115;50.170;8.242;2023-03-16T00:18:20;0.20;99.90
8261;DHT22;64115;50.170;8.242;2023-03-16T00:20:50;0.10;99.90
8261;DHT22;64115;50.170;8.242;2023-03-16T00:23:19;0.10;99.90
8261;DHT22;64115;50.170;8.242;2023-03-16T00:25:52;0.10;99.90
8261;DHT22;64115;50.170;8.242;2023-03-16T00:28:20;0.20;99.90
8261;DHT22;64115;50.170;8.242;2023-03-16T00:30:47;0.20;99.90
8261;DHT22;64115;50.170;8.242;2023-03-16T00:33:14;0.20;99.90
8261;DHT22;64115;50.170;8.242;2023-03-16T00:35:46;0.30;99.90
8261;DHT22;64115;50.170;8.242;2023-03-16T00:38:15;0.20;99.90
8261;DHT22;64115;50.170;8.242;2023-03-16T00:40:42;0.10;99.90
8261;DHT22;64115;50.170;8.242;2023-03-16T00:43:09;0.10;99.90
8261;DHT22;64115;50.170;8.242;2023-03-16T00:45:36;0.20;99.90
8261;DHT22;64115;50.170;8.242;2023-03-16T00:48:03;0.30;99.90
8261;DHT22;64115;50.170;8.242;2023-03-16T00:50:29;0.30;99.90
8261;DHT22;64115;50.170;8.242;2023-03-16T00:52:59;0.20;99.90
8261;DHT22;64115;50.170;8.242;2023-03-16T00:55:26;0.30;99.90
8261;DHT22;64115;50.170;8.242;2023-03-16T00:57:53;0.20;99.90
8261;DHT22;64115;50.170;8.242;2023-03-16T01:00:20;0.20;99.90
8261;DHT22;64115;50.170;8.242;2023-03-16T01:02:49;0.30;99.90
8261;DHT22;64115;50.170;8.242;2023-03-16T01:05:16;0.20;99.90
8261;DHT22;64115;50.170;8.242;2023-03-16T01:07:43;0.30;99.90
8261;DHT22;64115;50.170;8.242;2023-03-16T01:10:12;0.30;99.90
8261;DHT22;64115;50.170;8.242;2023-03-16T01:12:39;0.30;99.90
8261;DHT22;64115;50.170;8.242;2023-03-16T01:15:10;0.30;99.90
8261;DHT22;64115;50.170;8.242;2023-03-16T01:17:38;0.30;99.90
8261;DHT22;64115;50.170;8.242;2023-03-16T01:20:06;0.20;99.90
8261;DHT22;64115;50.170;8.242;2023-03-16T01:22:36;0.20;99.90
8261;DHT22;64115;50.170;8.242;2023-03-16T01:25:04;0.20;99.90
8261;DHT22;64115;50.170;8.242;2023-03-16T01:27:33;0.20;99.90
8261;DHT22;64115;50.170;8.242;2023-03-16T01:30:00;0.20;99.90
8261;DHT22;64115;50.170;8.242;2023-03-16T01:32:27;0.20;99.90
8261;DHT22;64115;50.170;8.242;2023-03-16T01:34:54;0.20;99.90
8261;DHT22;64115;50.170;8.242;2023-03-16T01:37:21;0.10;99.90
8261;DHT22;64115;50.170;8.242;2023-03-16T01:39:48;0.10;99.90
8261;DHT22;64115;50.170;8.242;2023-03-16T01:42:15;0.20;99.90
8261;DHT22;64115;50.170;8.242;2023-03-16T01:44:52;0.10;99.90
8261;DHT22;64115;50.170;8.242;2023-03-16T01:47:20;0.10;99.90
8261;DHT22;64115;50.170;8.242;2023-03-16T01:49:49;0.00;99.90
8261;DHT22;64115;50.170;8.242;2023-03-16T01:52:21;0.00;99.90
8261;DHT22;64115;50.170;8.242;2023-03-16T01:54:51;0.20;99.90
8261;DHT22;64115;50.170;8.242;2023-03-16T01:57:21;0.20;99.90
8261;DHT22;64115;50.170;8.242;2023-03-16T01:59:53;0.20;99.90
8261;DHT22;64115;50.170;8.242;2023-03-16T02:02:23;0.20;99.90
8261;DHT22;64115;50.170;8.242;2023-03-16T02:04:54;0.20;99.90
8261;DHT22;64115;50.170;8.242;2023-03-16T02:07:25;0.20;99.90
8261;DHT22;64115;50.170;8.242;2023-03-16T02:09:56;0.20;99.90
8261;DHT22;64115;50.170;8.242;2023-03-16T02:12:24;0.20;99.90
8261;DHT22;64115;50.170;8.242;2023-03-16T02:14:52;0.30;99.90
8261;DHT22;64115;50.170;8.242;2023-03-16T02:17:21;0.20;99.90
8261;DHT22;64115;50.170;8.242;2023-03-16T02:19:57;0.10;99.90
8261;DHT22;64115;50.170;8.242;2023-03-16T02:22:26;0.10;99.90
8261;DHT22;64115;50.170;8.242;2023-03-16T02:24:53;0.10;99.90
8261;DHT22;64115;50.170;8.242;2023-03-16T02:27:26;0.10;99.90
8261;DHT22;64115;50.170;8.242;2023-03-16T02:30:11;0.10;99.90
8261;DHT22;64115;50.170;8.242;2023-03-16T02:32:39;0.10;99.90
8261;DHT22;64115;50.170;8.242;2023-03-16T02:35:07;0.10;99.90
8261;DHT22;64115;50.170;8.242;2023-03-16T02:37:35;0.10;99.90
8261;DHT22;64115;50.170;8.242;2023-03-16T02:40:18;0.20;99.90
8261;DHT22;64115;50.170;8.242;2023-03-16T02:42:48;0.20;99.90
8261;DHT22;64115;50.170;8.242;2023-03-16T02:45:20;0.20;99.90
8261;DHT22;64115;50.170;8.242;2023-03-16T02:47:51;0.10;99.90
8261;DHT22;64115;50.170;8.242;2023-03-16T02:50:19;0.10;99.90
8261;DHT22;64115;50.170;8.242;2023-03-16T02:52:46;0.20;99.90
8261;DHT22;64115;50.170;8.242;2023-03-16T02:55:14;0.20;99.90
8261;DHT22;64115;50.170;8.242;2023-03-16T02:57:41;0.20;99.90
8261;DHT22;64115;50.170;8.242;2023-03-16T03:00:09;0.30;99.90
8261;DHT22;64115;50.170;8.242;2023-03-16T03:02:43;0.30;99.90
8261;DHT22;64115;50.170;8.242;2023-03-16T03:05:10;0.40;99.90
8261;DHT22;64115;50.170;8.242;2023-03-16T03:07:37;0.40;99.90
8261;DHT22;64115;50.170;8.242;2023-03-16T03:10:05;0.40;99.90
8261;DHT22;64115;50.170;8.242;2023-03-16T03:12:33;0.40;99.90
8261;DHT22;64115;50.170;8.242;2023-03-16T03:15:00;0.40;99.90
8261;DHT22;64115;50.170;8.242;2023-03-16T03:17:27;0.30;99.90
8261;DHT22;64115;50.170;8.242;2023-03-16T03:19:57;0.10;99.90
8261;DHT22;64115;50.170;8.242;2023-03-16T03:22:24;0.10;99.90
8261;DHT22;64115;50.170;8.242;2023-03-16T03:24:52;0.00;99.90
8261;DHT22;64115;50.170;8.242;2023-03-16T03:27:19;0.00;99.90
8261;DHT22;64115;50.170;8.242;2023-03-16T03:29:47;-0.10;99.90
8261;DHT22;64115;50.170;8.242;2023-03-16T03:32:14;-0.20;99.90
8261;DHT22;64115;50.170;8.242;2023-03-16T03:34:41;-0.20;99.90
8261;DHT22;64115;50.170;8.242;2023-03-16T03:37:09;-0.10;99.90
8261;DHT22;64115;50.170;8.242;2023-03-16T03:39:36;-0.20;99.90
8261;DHT22;64115;50.170;8.242;2023-03-16T03:42:05;-0.20;99.90
8261;DHT22;64115;50.170;8.242;2023-03-16T03:44:32;-0.20;99.90
8261;DHT22;64115;50.170;8.242;2023-03-16T03:47:00;-0.20;99.90
8261;DHT22;64115;50.170;8.242;2023-03-16T03:49:27;-0.20;99.90
8261;DHT22;64115;50.170;8.242;2023-03-16T03:51:54;-0.20;99.90
8261;DHT22;64115;50.170;8.242;2023-03-16T03:54:25;-0.30;99.90
8261;DHT22;64115;50.170;8.242;2023-03-16T03:56:52;-0.40;99.90
8261;DHT22;64115;50.170;8.242;2023-03-16T03:59:19;-0.50;99.90
8261;DHT22;64115;50.170;8.242;2023-03-16T04:01:47;-0.40;99.90
8261;DHT22;64115;50.170;8.242;2023-03-16T04:04:15;-0.30;99.90
8261;DHT22;64115;50.170;8.242;2023-03-16T04:06:42;-0.30;99.90
8261;DHT22;64115;50.170;8.242;2023-03-16T04:09:09;-0.40;99.90
8261;DHT22;64115;50.170;8.242;2023-03-16T04:11:37;-0.40;99.90
8261;DHT22;64115;50.170;8.242;2023-03-16T04:14:05;-0.50;99.90
8261;DHT22;64115;50.170;8.242;2023-03-16T04:16:32;-0.70;99.90
8261;DHT22;64115;50.170;8.242;2023-03-16T04:18:59;-0.70;99.90
8261;DHT22;64115;50.170;8.242;2023-03-16T04:21:26;-0.80;99.90
8261;DHT22;64115;50.170;8.242;2023-03-16T04:23:54;-0.80;99.90
8261;DHT22;64115;50.170;8.242;2023-03-16T04:26:21;-0.90;99.90
8261;DHT22;64115;50.170;8.242;2023-03-16T04:28:51;-1.00;99.90
8261;DHT22;64115;50.170;8.242;2023-03-16T04:31:18;-1.00;99.90
8261;DHT22;64115;50.170;8.242;2023-03-16T04:33:45;-1.10;99.90
8261;DHT22;64115;50.170;8.242;2023-03-16T04:36:13;-1.10;99.90
8261;DHT22;64115;50.170;8.242;2023-03-16T04:38:39;-1.10;99.90
8261;DHT22;64115;50.170;8.242;2023-03-16T04:41:07;-1.10;99.90
8261;DHT22;64115;50.170;8.242;2023-03-16T04:43:36;-1.10;99.90
8261;DHT22;64115;50.170;8.242;2023-03-16T04:46:04;-1.10;99.90
8261;DHT22;64115;50.170;8.242;2023-03-16T04:48:32;-1.10;99.90
8261;DHT22;64115;50.170;8.242;2023-03-16T04:50:59;-1.10;99.90
8261;DHT22;64115;50.170;8.242;2023-03-16T04:53:28;-1.00;99.90
8261;DHT22;64115;50.170;8.242;2023-03-16T04:55:56;-0.80;99.90
8261;DHT22;64115;50.170;8.242;2023-03-16T04:58:23;-0.80;99.90
8261;DHT22;64115;50.170;8.242;2023-03-16T05:00:51;-0.80;99.90
8261;DHT22;64115;50.170;8.242;2023-03-16T05:03:19;-0.70;99.90
8261;DHT22;64115;50.170;8.242;2023-03-16T05:05:46;-0.60;99.90
8261;DHT22;64115;50.170;8.242;2023-03-16T05:08:14;-0.60;99.90
8261;DHT22;64115;50.170;8.242;2023-03-16T05:10:41;-0.60;99.90
8261;DHT22;64115;50.170;8.242;2023-03-16T05:13:09;-0.50;99.90
8261;DHT22;64115;50.170;8.242;2023-03-16T05:15:36;-0.40;99.90
8261;DHT22;64115;50.170;8.242;2023-03-16T05:18:04;-0.30;99.90
8261;DHT22;64115;50.170;8.242;2023-03-16T05:20:32;-0.30;99.90
8261;DHT22;64115;50.170;8.242;2023-03-16T05:22:59;-0.30;99.90
8261;DHT22;64115;50.170;8.242;2023-03-16T05:25:26;-0.30;99.90
8261;DHT22;64115;50.170;8.242;2023-03-16T05:27:53;-0.20;99.90
8261;DHT22;64115;50.170;8.242;2023-03-16T05:30:21;-0.10;99.90
8261;DHT22;64115;50.170;8.242;2023-03-16T05:32:48;0.00;99.90
8261;DHT22;64115;50.170;8.242;2023-03-16T05:35:15;0.10;99.90
8261;DHT22;64115;50.170;8.242;2023-03-16T05:37:44;0.20;99.90
8261;DHT22;64115;50.170;8.242;2023-03-16T05:40:12;0.20;99.90
8261;DHT22;64115;50.170;8.242;2023-03-16T05:42:42;0.30;99.90
8261;DHT22;64115;50.170;8.242;2023-03-16T05:45:10;0.20;99.90
8261;DHT22;64115;50.170;8.242;2023-03-16T05:47:37;0.30;99.90
8261;DHT22;64115;50.170;8.242;2023-03-16T05:50:05;0.30;99.90
8261;DHT22;64115;50.170;8.242;2023-03-16T05:52:33;0.40;99.90
8261;DHT22;64115;50.170;8.242;2023-03-16T05:55:02;0.40;99.90
8261;DHT22;64115;50.170;8.242;2023-03-16T05:57:30;0.60;99.90
8261;DHT22;64115;50.170;8.242;2023-03-16T05:59:57;0.60;99.90
8261;DHT22;64115;50.170;8.242;2023-03-16T06:02:24;0.60;99.90
8261;DHT22;64115;50.170;8.242;2023-03-16T06:04:51;0.50;99.90
8261;DHT22;64115;50.170;8.242;2023-03-16T06:07:18;0.50;99.90
8261;DHT22;64115;50.170;8.242;2023-03-16T06:09:45;0.60;99.90
8261;DHT22;64115;50.170;8.242;2023-03-16T06:12:14;0.60;99.90
8261;DHT22;64115;50.170;8.242;2023-03-16T06:14:40;0.70;99.90
8261;DHT22;64115;50.170;8.242;2023-03-16T06:17:07;0.80;99.90
8261;DHT22;64115;50.170;8.242;2023-03-16T06:19:35;0.90;99.90
8261;DHT22;64115;50.170;8.242;2023-03-16T06:22:02;0.90;99.90
8261;DHT22;64115;50.170;8.242;2023-03-16T06:24:29;0.90;99.90
8261;DHT22;64115;50.170;8.242;2023-03-16T06:26:56;0.90;99.90
8261;DHT22;64115;50.170;8.242;2023-03-16T06:29:24;1.10;99.90
8261;DHT22;64115;50.170;8.242;2023-03-16T06:31:51;1.20;99.90
8261;DHT22;64115;50.170;8.242;2023-03-16T06:34:19;1.20;99.90
8261;DHT22;64115;50.170;8.242;2023-03-16T06:36:47;1.30;99.90
8261;DHT22;64115;50.170;8.242;2023-03-16T06:39:14;1.30;99.90
8261;DHT22;64115;50.170;8.242;2023-03-16T06:41:41;1.40;99.90
8261;DHT22;64115;50.170;8.242;2023-03-16T06:44:08;1.40;99.90
8261;DHT22;64115;50.170;8.242;2023-03-16T06:46:37;1.40;99.90
8261;DHT22;64115;50.170;8.242;2023-03-16T06:49:04;1.30;99.90
8261;DHT22;64115;50.170;8.242;2023-03-16T06:51:32;1.50;99.90
8261;DHT22;64115;50.170;8.242;2023-03-16T06:53:59;1.50;99.90
8261;DHT22;64115;50.170;8.242;2023-03-16T06:56:26;1.40;99.90
8261;DHT22;64115;50.170;8.242;2023-03-16T06:58:53;1.50;99.90
8261;DHT22;64115;50.170;8.242;2023-03-16T07:01:20;1.40;99.90
8261;DHT22;64115;50.170;8.242;2023-03-16T07:03:48;1.30;99.90
8261;DHT22;64115;50.170;8.242;2023-03-16T07:06:16;1.30;99.90
8261;DHT22;64115;50.170;8.242;2023-03-16T07:08:43;1.30;99.90
8261;DHT22;64115;50.170;8.242;2023-03-16T07:11:10;1.30;99.90
8261;DHT22;64115;50.170;8.242;2023-03-16T07:13:39;1.30;99.90
8261;DHT22;64115;50.170;8.242;2023-03-16T07:16:07;1.30;99.90
8261;DHT22;64115;50.170;8.242;2023-03-16T07:18:34;1.50;99.90
8261;DHT22;64115;50.170;8.242;2023-03-16T07:21:06;1.50;99.90
8261;DHT22;64115;50.170;8.242;2023-03-16T07:23:33;1.60;99.90
8261;DHT22;64115;50.170;8.242;2023-03-16T07:26:00;1.70;99.90
8261;DHT22;64115;50.170;8.242;2023-03-16T07:28:28;1.60;99.90
8261;DHT22;64115;50.170;8.242;2023-03-16T07:30:56;1.60;99.90
8261;DHT22;64115;50.170;8.242;2023-03-16T07:33:23;1.50;99.90
8261;DHT22;64115;50.170;8.242;2023-03-16T07:35:50;1.50;99.90
8261;DHT22;64115;50.170;8.242;2023-03-16T07:38:19;1.60;99.90
8261;DHT22;64115;50.170;8.242;2023-03-16T07:40:46;1.60;99.90
8261;DHT22;64115;50.170;8.242;2023-03-16T07:43:13;1.70;99.90
8261;DHT22;64115;50.170;8.242;2023-03-16T07:45:40;1.70;99.90
8261;DHT22;64115;50.170;8.242;2023-03-16T07:48:07;1.80;99.90
8261;DHT22;64115;50.170;8.242;2023-03-16T07:50:34;1.80;99.90
8261;DHT22;64115;50.170;8.242;2023-03-16T07:53:01;1.90;99.90
8261;DHT22;64115;50.170;8.242;2023-03-16T07:55:31;2.00;99.90
8261;DHT22;64115;50.170;8.242;2023-03-16T07:58:01;2.10;99.90
8261;DHT22;64115;50.170;8.242;2023-03-16T08:00:29;2.20;99.90
8261;DHT22;64115;50.170;8.242;2023-03-16T08:02:56;2.20;99.90
8261;DHT22;64115;50.170;8.242;2023-03-16T08:05:23;2.20;99.90
8261;DHT22;64115;50.170;8.242;2023-03-16T08:07:51;2.40;99.90
8261;DHT22;64115;50.170;8.242;2023-03-16T08:10:18;2.50;99.90
8261;DHT22;64115;50.170;8.242;2023-03-16T08:12:47;2.70;99.90
8261;DHT22;64115;50.170;8.242;2023-03-16T08:15:14;2.80;99.90
8261;DHT22;64115;50.170;8.242;2023-03-16T08:17:42;3.00;99.90
8261;DHT22;64115;50.170;8.242;2023-03-16T08:20:10;3.00;99.90
8261;DHT22;64115;50.170;8.242;2023-03-16T08:22:39;3.10;99.90
8261;DHT22;64115;50.170;8.242;2023-03-16T08:25:08;3.10;99.90
8261;DHT22;64115;50.170;8.242;2023-03-16T08:27:36;3.00;99.90
8261;DHT22;64115;50.170;8.242;2023-03-16T08:30:07;3.10;99.90
8261;DHT22;64115;50.170;8.242;2023-03-16T08:32:36;3.20;99.90
8261;DHT22;64115;50.170;8.242;2023-03-16T08:35:06;3.20;99.90
8261;DHT22;64115;50.170;8.242;2023-03-16T08:37:33;3.30;99.90
8261;DHT22;64115;50.170;8.242;2023-03-16T08:40:01;3.40;99.90
8261;DHT22;64115;50.170;8.242;2023-03-16T08:42:29;3.50;99.90
8261;DHT22;64115;50.170;8.242;2023-03-16T08:44:57;3.60;99.90
8261;DHT22;64115;50.170;8.242;2023-03-16T08:47:26;3.50;99.90
8261;DHT22;64115;50.170;8.242;2023-03-16T08:49:54;3.50;99.90
8261;DHT22;64115;50.170;8.242;2023-03-16T08:52:21;3.70;99.90
8261;DHT22;64115;50.170;8.242;2023-03-16T08:54:49;3.90;99.90
8261;DHT22;64115;50.170;8.242;2023-03-16T08:57:16;3.90;99.90
8261;DHT22;64115;50.170;8.242;2023-03-16T08:59:43;3.90;99.90
8261;DHT22;64115;50.170;8.242;2023-03-16T09:02:11;3.90;99.90
8261;DHT22;64115;50.170;8.242;2023-03-16T09:04:41;3.80;99.90
8261;DHT22;64115;50.170;8.242;2023-03-16T09:07:08;3.70;99.90
8261;DHT22;64115;50.170;8.242;2023-03-16T09:09:36;3.80;99.90
8261;DHT22;64115;50.170;8.242;2023-03-16T09:12:04;3.90;99.90
8261;DHT22;64115;50.170;8.242;2023-03-16T09:14:32;4.10;99.90
8261;DHT22;64115;50.170;8.242;2023-03-16T09:16:59;4.30;99.90
8261;DHT22;64115;50.170;8.242;2023-03-16T09:19:26;4.40;99.90
8261;DHT22;64115;50.170;8.242;2023-03-16T09:21:55;4.50;99.90
8261;DHT22;64115;50.170;8.242;2023-03-16T09:24:22;4.50;99.90
8261;DHT22;64115;50.170;8.242;2023-03-16T09:26:50;4.50;99.90
8261;DHT22;64115;50.170;8.242;2023-03-16T09:29:17;4.30;99.90
8261;DHT22;64115;50.170;8.242;2023-03-16T09:31:44;4.30;99.90
8261;DHT22;64115;50.170;8.242;2023-03-16T09:34:11;4.20;99.90
8261;DHT22;64115;50.170;8.242;2023-03-16T09:36:39;4.40;99.90
8261;DHT22;64115;50.170;8.242;2023-03-16T09:39:08;4.50;99.90
8261;DHT22;64115;50.170;8.242;2023-03-16T09:41:41;4.50;99.90
8261;DHT22;64115;50.170;8.242;2023-03-16T09:44:22;4.50;99.90
8261;DHT22;64115;50.170;8.242;2023-03-16T09:46:50;4.60;99.90
8261;DHT22;64115;50.170;8.242;2023-03-16T09:49:20;4.70;99.90
8261;DHT22;64115;50.170;8.242;2023-03-16T09:51:54;4.80;99.90
8261;DHT22;64115;50.170;8.242;2023-03-16T09:54:33;4.90;99.90
8261;DHT22;64115;50.170;8.242;2023-03-16T09:57:04;5.00;99.90
8261;DHT22;64115;50.170;8.242;2023-03-16T09:59:40;5.10;99.90
8261;DHT22;64115;50.170;8.242;2023-03-16T10:02:28;5.30;99.90
8261;DHT22;64115;50.170;8.242;2023-03-16T10:05:08;5.20;99.90
8261;DHT22;64115;50.170;8.242;2023-03-16T10:07:44;5.30;99.90
8261;DHT22;64115;50.170;8.242;2023-03-16T10:13:26;5.50;99.90
8261;DHT22;64115;50.170;8.242;2023-03-16T10:15:55;5.50;99.90
8261;DHT22;64115;50.170;8.242;2023-03-16T10:18:28;5.60;99.90
8261;DHT22;64115;50.170;8.242;2023-03-16T10:20:57;5.80;99.90
8261;DHT22;64115;50.170;8.242;2023-03-16T10:23:25;5.90;99.90
8261;DHT22;64115;50.170;8.242;2023-03-16T10:25:53;6.00;99.90
8261;DHT22;64115;50.170;8.242;2023-03-16T10:28:24;5.80;99.90
8261;DHT22;64115;50.170;8.242;2023-03-16T10:30:56;5.80;99.90
8261;DHT22;64115;50.170;8.242;2023-03-16T10:33:25;5.70;99.90
8261;DHT22;64115;50.170;8.242;2023-03-16T10:35:58;5.80;99.90
8261;DHT22;64115;50.170;8.242;2023-03-16T10:38:30;5.90;99.90
8261;DHT22;64115;50.170;8.242;2023-03-16T10:41:04;5.80;99.90
8261;DHT22;64115;50.170;8.242;2023-03-16T10:43:34;5.50;99.90
8261;DHT22;64115;50.170;8.242;2023-03-16T10:46:01;5.30;99.90
8261;DHT22;64115;50.170;8.242;2023-03-16T10:48:31;5.20;99.90
8261;DHT22;64115;50.170;8.242;2023-03-16T10:51:01;5.30;99.90
8261;DHT22;64115;50.170;8.242;2023-03-16T10:53:30;5.40;99.90
8261;DHT22;64115;50.170;8.242;2023-03-16T10:56:07;5.40;99.90
8261;DHT22;64115;50.170;8.242;2023-03-16T10:58:39;5.50;99.90
8261;DHT22;64115;50.170;8.242;2023-03-16T11:01:10;5.40;99.90
8261;DHT22;64115;50.170;8.242;2023-03-16T11:03:39;5.60;99.90
8261;DHT22;64115;50.170;8.242;2023-03-16T11:06:18;5.80;99.90
8261;DHT22;64115;50.170;8.242;2023-03-16T11:08:47;6.10;99.90
8261;DHT22;64115;50.170;8.242;2023-03-16T11:11:17;6.40;99.90
8261;DHT22;64115;50.170;8.242;2023-03-16T11:13:47;6.60;99.90
8261;DHT22;64115;50.170;8.242;2023-03-16T11:16:23;6.80;99.90
8261;DHT22;64115;50.170;8.242;2023-03-16T11:18:54;6.70;99.90
8261;DHT22;64115;50.170;8.242;2023-03-16T11:21:30;6.30;99.90
8261;DHT22;64115;50.170;8.242;2023-03-16T11:24:02;6.30;99.90
8261;DHT22;64115;50.170;8.242;2023-03-16T11:26:32;6.20;99.90
8261;DHT22;64115;50.170;8.242;2023-03-16T11:29:04;6.30;99.90
8261;DHT22;64115;50.170;8.242;2023-03-16T11:31:39;6.30;99.90
8261;DHT22;64115;50.170;8.242;2023-03-16T11:34:15;6.30;99.90
8261;DHT22;64115;50.170;8.242;2023-03-16T11:36:47;6.50;99.90
8261;DHT22;64115;50.170;8.242;2023-03-16T11:39:32;6.30;99.90
8261;DHT22;64115;50.170;8.242;2023-03-16T11:42:27;6.20;99.90
8261;DHT22;64115;50.170;8.242;2023-03-16T11:45:11;6.60;99.90
8261;DHT22;64115;50.170;8.242;2023-03-16T11:53:46;6.90;99.90
8261;DHT22;64115;50.170;8.242;2023-03-16T11:56:27;6.90;99.90
8261;DHT22;64115;50.170;8.242;2023-03-16T12:01:53;6.60;99.90
8261;DHT22;64115;50.170;8.242;2023-03-16T12:04:39;6.50;99.90
8261;DHT22;64115;50.170;8.242;2023-03-16T12:07:18;6.40;99.90
8261;DHT22;64115;50.170;8.242;2023-03-16T12:10:07;6.40;99.90
8261;DHT22;64115;50.170;8.242;2023-03-16T12:12:50;6.60;99.90
8261;DHT22;64115;50.170;8.242;2023-03-16T12:15:28;6.80;99.90
8261;DHT22;64115;50.170;8.242;2023-03-16T12:18:01;7.00;99.90
8261;DHT22;64115;50.170;8.242;2023-03-16T12:20:33;7.30;99.90
8261;DHT22;64115;50.170;8.242;2023-03-16T12:23:07;7.50;99.90
8261;DHT22;64115;50.170;8.242;2023-03-16T12:25:39;7.40;99.90
8261;DHT22;64115;50.170;8.242;2023-03-16T12:28:21;7.40;99.90
8261;DHT22;64115;50.170;8.242;2023-03-16T12:30:57;7.40;99.90
8261;DHT22;64115;50.170;8.242;2023-03-16T12:33:44;7.40;99.90
8261;DHT22;64115;50.170;8.242;2023-03-16T12:36:44;7.80;99.90
8261;DHT22;64115;50.170;8.242;2023-03-16T12:39:19;7.90;99.90
8261;DHT22;64115;50.170;8.242;2023-03-16T12:41:58;7.80;99.90
8261;DHT22;64115;50.170;8.242;2023-03-16T12:44:33;7.70;99.90
8261;DHT22;64115;50.170;8.242;2023-03-16T12:47:10;7.50;99.90
8261;DHT22;64115;50.170;8.242;2023-03-16T12:49:43;7.60;99.90
8261;DHT22;64115;50.170;8.242;2023-03-16T12:52:11;8.00;99.90
8261;DHT22;64115;50.170;8.242;2023-03-16T12:54:49;8.20;99.90
8261;DHT22;64115;50.170;8.242;2023-03-16T12:57:18;7.90;99.90
8261;DHT22;64115;50.170;8.242;2023-03-16T12:59:47;7.90;99.90
8261;DHT22;64115;50.170;8.242;2023-03-16T13:02:17;8.10;99.90
8261;DHT22;64115;50.170;8.242;2023-03-16T13:04:55;8.20;99.90
8261;DHT22;64115;50.170;8.242;2023-03-16T13:07:25;8.20;99.90
8261;DHT22;64115;50.170;8.242;2023-03-16T13:09:56;7.60;99.90
8261;DHT22;64115;50.170;8.242;2023-03-16T13:12:26;7.70;99.90
8261;DHT22;64115;50.170;8.242;2023-03-16T13:14:56;7.70;99.90
8261;DHT22;64115;50.170;8.242;2023-03-16T13:17:26;7.50;99.90
8261;DHT22;64115;50.170;8.242;2023-03-16T13:20:25;7.60;99.90
8261;DHT22;64115;50.170;8.242;2023-03-16T13:23:08;7.80;99.90
8261;DHT22;64115;50.170;8.242;2023-03-16T13:25:58;8.10;99.90
8261;DHT22;64115;50.170;8.242;2023-03-16T13:28:29;8.30;99.90
8261;DHT22;64115;50.170;8.242;2023-03-16T13:30:57;8.50;99.90
8261;DHT22;64115;50.170;8.242;2023-03-16T13:33:27;8.10;99.90
8261;DHT22;64115;50.170;8.242;2023-03-16T13:35:58;8.10;99.90
8261;DHT22;64115;50.170;8.242;2023-03-16T13:38:27;8.20;99.90
8261;DHT22;64115;50.170;8.242;2023-03-16T13:40:56;8.20;99.90
8261;DHT22;64115;50.170;8.242;2023-03-16T13:43:26;8.40;99.90
8261;DHT22;64115;50.170;8.242;2023-03-16T13:45:55;8.20;99.90
8261;DHT22;64115;50.170;8.242;2023-03-16T13:48:23;8.10;99.90
8261;DHT22;64115;50.170;8.242;2023-03-16T13:50:51;8.20;99.90
8261;DHT22;64115;50.170;8.242;2023-03-16T13:53:22;8.20;99.90
8261;DHT22;64115;50.170;8.242;2023-03-16T13:55:51;8.30;99.90
8261;DHT22;64115;50.170;8.242;2023-03-16T13:58:22;8.20;99.90
8261;DHT22;64115;50.170;8.242;2023-03-16T14:00:54;7.90;99.90
8261;DHT22;64115;50.170;8.242;2023-03-16T14:03:22;7.80;99.90
8261;DHT22;64115;50.170;8.242;2023-03-16T14:05:49;7.60;99.90
8261;DHT22;64115;50.170;8.242;2023-03-16T14:08:20;7.60;99.90
8261;DHT22;64115;50.170;8.242;2023-03-16T14:10:48;7.70;99.90
8261;DHT22;64115;50.170;8.242;2023-03-16T14:13:29;7.90;99.90
8261;DHT22;64115;50.170;8.242;2023-03-16T14:16:00;7.90;99.90
8261;DHT22;64115;50.170;8.242;2023-03-16T14:18:31;7.90;99.90
8261;DHT22;64115;50.170;8.242;2023-03-16T14:21:05;7.80;99.90
8261;DHT22;64115;50.170;8.242;2023-03-16T14:23:36;7.80;99.90
8261;DHT22;64115;50.170;8.242;2023-03-16T14:26:05;7.90;99.90
8261;DHT22;64115;50.170;8.242;2023-03-16T14:28:33;7.90;99.90
8261;DHT22;64115;50.170;8.242;2023-03-16T14:31:05;8.00;99.90
8261;DHT22;64115;50.170;8.242;2023-03-16T14:33:34;8.10;99.90
8261;DHT22;64115;50.170;8.242;2023-03-16T14:36:09;8.10;99.90
8261;DHT22;64115;50.170;8.242;2023-03-16T14:38:39;8.20;99.90
8261;DHT22;64115;50.170;8.242;2023-03-16T14:41:18;8.40;99.90
8261;DHT22;64115;50.170;8.242;2023-03-16T14:43:48;8.30;99.90
8261;DHT22;64115;50.170;8.242;2023-03-16T14:46:23;8.20;99.90
8261;DHT22;64115;50.170;8.242;2023-03-16T14:48:59;7.90;99.90
8261;DHT22;64115;50.170;8.242;2023-03-16T14:51:28;8.00;99.90
8261;DHT22;64115;50.170;8.242;2023-03-16T14:53:57;8.10;99.90
8261;DHT22;64115;50.170;8.242;2023-03-16T14:56:31;8.00;99.90
8261;DHT22;64115;50.170;8.242;2023-03-16T14:58:58;8.00;99.90
8261;DHT22;64115;50.170;8.242;2023-03-16T15:01:26;8.00;99.90
8261;DHT22;64115;50.170;8.242;2023-03-16T15:03:53;8.10;99.90
8261;DHT22;64115;50.170;8.242;2023-03-16T15:06:21;8.20;99.90
8261;DHT22;64115;50.170;8.242;2023-03-16T15:08:48;8.20;99.90
8261;DHT22;64115;50.170;8.242;2023-03-16T15:11:17;8.20;99.90
8261;DHT22;64115;50.170;8.242;2023-03-16T15:13:46;8.10;99.90
8261;DHT22;64115;50.170;8.242;2023-03-16T15:16:29;7.90;99.90
8261;DHT22;64115;50.170;8.242;2023-03-16T15:18:56;7.90;99.90
8261;DHT22;64115;50.170;8.242;2023-03-16T15:21:26;7.90;99.90
8261;DHT22;64115;50.170;8.242;2023-03-16T15:23:55;7.90;99.90
8261;DHT22;64115;50.170;8.242;2023-03-16T15:26:27;7.90;99.90
8261;DHT22;64115;50.170;8.242;2023-03-16T15:28:56;7.90;99.90
8261;DHT22;64115;50.170;8.242;2023-03-16T15:31:23;7.90;99.90
8261;DHT22;64115;50.170;8.242;2023-03-16T15:33:51;8.00;99.90
8261;DHT22;64115;50.170;8.242;2023-03-16T15:36:20;7.90;99.90
8261;DHT22;64115;50.170;8.242;2023-03-16T15:38:50;7.80;99.90
8261;DHT22;64115;50.170;8.242;2023-03-16T15:41:17;7.70;99.90
8261;DHT22;64115;50.170;8.242;2023-03-16T15:43:46;7.70;99.90
8261;DHT22;64115;50.170;8.242;2023-03-16T15:46:13;7.80;99.90
8261;DHT22;64115;50.170;8.242;2023-03-16T15:48:41;7.70;99.90
8261;DHT22;64115;50.170;8.242;2023-03-16T15:51:16;7.80;99.90
8261;DHT22;64115;50.170;8.242;2023-03-16T15:53:48;7.90;99.90
8261;DHT22;64115;50.170;8.242;2023-03-16T15:56:19;7.90;99.90
8261;DHT22;64115;50.170;8.242;2023-03-16T15:58:50;7.80;99.90
8261;DHT22;64115;50.170;8.242;2023-03-16T16:01:20;7.70;99.90
8261;DHT22;64115;50.170;8.242;2023-03-16T16:03:48;7.70;99.90
8261;DHT22;64115;50.170;8.242;2023-03-16T16:06:16;7.60;99.90
8261;DHT22;64115;50.170;8.242;2023-03-16T16:08:43;7.60;99.90
8261;DHT22;64115;50.170;8.242;2023-03-16T16:11:13;7.50;99.90
8261;DHT22;64115;50.170;8.242;2023-03-16T16:13:41;7.50;99.90
8261;DHT22;64115;50.170;8.242;2023-03-16T16:16:10;7.50;99.90
8261;DHT22;64115;50.170;8.242;2023-03-16T16:18:39;7.50;99.90
8261;DHT22;64115;50.170;8.242;2023-03-16T16:21:09;7.40;99.90
8261;DHT22;64115;50.170;8.242;2023-03-16T16:23:40;7.40;99.90
8261;DHT22;64115;50.170;8.242;2023-03-16T16:26:15;7.40;99.90
8261;DHT22;64115;50.170;8.242;2023-03-16T16:28:43;7.40;99.90